createdAt,value
2023-02-07T00:00:57.106Z,103911.44
2023-02-07T00:03:24.851Z,103895.19
2023-02-07T00:05:52.608Z,103900.88
2023-02-07T00:08:20.309Z,103903.69
2023-02-07T00:10:48.046Z,103896.63
2023-02-07T00:13:15.752Z,103894.81
2023-02-07T00:15:44.829Z,103893.09
2023-02-07T00:18:12.543Z,103895.91
2023-02-07T00:20:40.293Z,103903.94
2023-02-07T00:23:08.003Z,103898.94
2023-02-07T00:25:36.049Z,103901.38
2023-02-07T00:28:04.026Z,103897.97
2023-02-07T00:30:31.834Z,103890.94
2023-02-07T00:33:00.915Z,103898.09
2023-02-07T00:35:28.640Z,103900.91
2023-02-07T00:37:56.352Z,103899.19
2023-02-07T00:40:24.193Z,103892.28
2023-02-07T00:42:51.930Z,103885.09
2023-02-07T00:45:19.603Z,103886.94
2023-02-07T00:47:47.326Z,103888.03
2023-02-07T00:50:16.607Z,103897.03
2023-02-07T00:52:44.377Z,103886.56
2023-02-07T00:55:12.135Z,103886.56
2023-02-07T00:57:39.812Z,103892.78
2023-02-07T01:00:10.878Z,103893.75
2023-02-07T01:02:38.636Z,103894.84
2023-02-07T01:05:07.138Z,103890.47
2023-02-07T01:07:36.517Z,103876.63
2023-02-07T01:10:05.042Z,103884.41
2023-02-07T01:12:32.802Z,103885.50
2023-02-07T01:15:01.028Z,103884.66
2023-02-07T01:17:28.846Z,103892.78
2023-02-07T01:19:58.530Z,103876.88
2023-02-07T01:22:26.376Z,103883.91
2023-02-07T01:24:56.321Z,103894.72
2023-02-07T01:27:24.682Z,103893.19
2023-02-07T01:29:52.674Z,103878.13
2023-02-07T01:32:20.385Z,103881.78
2023-02-07T01:34:48.143Z,103880.91
2023-02-07T01:37:15.871Z,103884.56
2023-02-07T01:39:43.576Z,103883.72
2023-02-07T01:42:15.068Z,103879.34
2023-02-07T01:45:04.713Z,103891.00
2023-02-07T01:47:34.030Z,103885.66
2023-02-07T01:50:02.347Z,103881.41
2023-02-07T01:52:34.944Z,103885.06
2023-02-07T01:55:07.799Z,103891.38
2023-02-07T01:57:37.803Z,103883.34
2023-02-07T02:00:07.073Z,103896.84
2023-02-07T02:02:37.716Z,103887.13
2023-02-07T02:05:06.458Z,103882.16
2023-02-07T02:07:35.834Z,103882.03
2023-02-07T02:10:03.582Z,103879.22
2023-02-07T02:12:52.588Z,103888.22
2023-02-07T02:15:32.555Z,103885.53
2023-02-07T02:18:24.110Z,103884.81
2023-02-07T02:21:29.296Z,103887.50
2023-02-07T02:24:22.449Z,103889.44
2023-02-07T02:27:00.092Z,103895.88
2023-02-07T02:30:14.020Z,103893.31
2023-02-07T02:33:02.055Z,103883.47
2023-02-07T02:35:36.596Z,103885.31
2023-02-07T02:38:14.296Z,103882.75
2023-02-07T02:40:50.638Z,103888.09
2023-02-07T02:43:27.069Z,103895.25
2023-02-07T02:45:57.997Z,103892.84
2023-02-07T02:48:28.432Z,103887.50
2023-02-07T02:50:56.786Z,103898.31
2023-02-07T02:53:24.697Z,103889.31
2023-02-07T02:56:30.202Z,103891.25
2023-02-07T02:59:25.009Z,103897.56
2023-02-07T03:02:00.567Z,103896.84
2023-02-07T03:04:55.022Z,103893.31
2023-02-07T03:07:42.129Z,103894.41
2023-02-07T03:10:19.900Z,103883.97
2023-02-07T03:12:57.845Z,103888.47
2023-02-07T03:15:34.397Z,103896.59
2023-02-07T03:18:08.916Z,103901.94
2023-02-07T03:20:43.202Z,103895.88
2023-02-07T03:23:13.015Z,103894.16
2023-02-07T03:25:42.735Z,103889.06
2023-02-07T03:28:12.647Z,103885.41
2023-02-07T03:30:43.991Z,103898.03
2023-02-07T03:33:15.051Z,103892.69
2023-02-07T03:35:50.723Z,103892.81
2023-02-07T03:38:18.793Z,103890.16
2023-02-07T03:40:50.002Z,103876.19
2023-02-07T03:43:21.655Z,103878.97
2023-02-07T03:45:49.407Z,103890.63
2023-02-07T03:48:17.126Z,103885.28
2023-02-07T03:50:47.657Z,103880.06
2023-02-07T03:53:15.420Z,103884.56
2023-02-07T03:55:43.111Z,103871.44
2023-02-07T03:58:11.003Z,103877.75
2023-02-07T04:00:38.962Z,103871.56
2023-02-07T04:03:07.589Z,103869.97
2023-02-07T04:05:35.455Z,103873.38
2023-02-07T04:08:05.032Z,103869.84
2023-02-07T04:10:32.758Z,103861.97
2023-02-07T04:13:00.443Z,103861.22
2023-02-07T04:15:28.390Z,103864.88
2023-02-07T04:17:56.061Z,103865.00
2023-02-07T04:20:23.810Z,103861.47
2023-02-07T04:22:51.494Z,103857.94
2023-02-07T04:25:20.595Z,103867.78
2023-02-07T04:27:48.369Z,103864.25
2023-02-07T04:30:16.119Z,103864.38
2023-02-07T04:32:43.851Z,103862.69
2023-02-07T04:35:11.558Z,103868.88
2023-02-07T04:37:40.637Z,103863.66
2023-02-07T04:40:09.486Z,103861.94
2023-02-07T04:42:38.556Z,103858.41
2023-02-07T04:45:06.908Z,103854.91
2023-02-07T04:47:34.625Z,103859.38
2023-02-07T04:50:02.399Z,103856.72
2023-02-07T04:52:30.084Z,103854.16
2023-02-07T04:54:57.815Z,103847.97
2023-02-07T04:57:25.543Z,103849.81
2023-02-07T04:59:54.631Z,103860.59
2023-02-07T05:02:22.364Z,103858.78
2023-02-07T05:04:50.102Z,103857.19
2023-02-07T05:07:17.889Z,103854.75
2023-02-07T05:09:45.576Z,103856.59
2023-02-07T05:12:13.715Z,103855.84
2023-02-07T05:14:41.425Z,103862.03
2023-02-07T05:17:11.592Z,103870.03
2023-02-07T05:19:39.337Z,103868.47
2023-02-07T05:22:07.062Z,103875.63
2023-02-07T05:24:34.767Z,103871.25
2023-02-07T05:27:02.481Z,103866.88
2023-02-07T05:29:30.263Z,103868.81
2023-02-07T05:32:15.692Z,103871.59
2023-02-07T05:34:44.740Z,103881.31
2023-02-07T05:37:12.479Z,103882.28
2023-02-07T05:39:40.189Z,103882.41
2023-02-07T05:42:07.930Z,103883.38
2023-02-07T05:44:35.633Z,103884.22
2023-02-07T05:47:03.383Z,103890.53
2023-02-07T05:49:31.142Z,103883.47
2023-02-07T05:52:01.527Z,103888.81
2023-02-07T05:54:29.203Z,103886.22
2023-02-07T05:56:56.943Z,103898.72
2023-02-07T05:59:24.682Z,103900.66
2023-02-07T06:01:52.384Z,103881.69
2023-02-07T06:04:20.179Z,103902.47
2023-02-07T06:06:47.940Z,103902.16
2023-02-07T06:09:17.151Z,103902.09
2023-02-07T06:11:44.928Z,103900.06
2023-02-07T06:14:12.663Z,103903.38
2023-02-07T06:16:40.320Z,103911.03
2023-02-07T06:19:08.019Z,103908.38
2023-02-07T06:21:46.098Z,103906.19
2023-02-07T06:24:14.413Z,103899.63
2023-02-07T06:26:44.349Z,103907.38
2023-02-07T06:29:12.091Z,103908.81
2023-02-07T06:31:39.964Z,103909.44
2023-02-07T06:34:07.840Z,103911.19
2023-02-07T06:36:35.639Z,103917.13
2023-02-07T06:39:03.518Z,103918.22
2023-02-07T06:41:31.339Z,103928.03
2023-02-07T06:44:00.401Z,103934.81
2023-02-07T06:46:28.176Z,103929.97
2023-02-07T06:48:55.967Z,103929.47
2023-02-07T06:51:23.796Z,103936.13
2023-02-07T06:53:51.479Z,103938.28
2023-02-07T06:56:19.181Z,103934.28
2023-02-07T06:58:46.953Z,103945.06
2023-02-07T07:01:20.087Z,103939.22
2023-02-07T07:03:48.087Z,103938.59
2023-02-07T07:06:15.781Z,103946.72
2023-02-07T07:08:43.491Z,103938.94
2023-02-07T07:11:11.169Z,103957.88
2023-02-07T07:13:39.012Z,103953.91
2023-02-07T07:16:07.366Z,103958.13
2023-02-07T07:18:38.379Z,103961.88
2023-02-07T07:21:07.231Z,103955.81
2023-02-07T07:23:35.148Z,103948.25
2023-02-07T07:26:03.030Z,103956.03
2023-02-07T07:28:31.102Z,103962.34
2023-02-07T07:31:03.724Z,103967.03
2023-02-07T07:33:31.527Z,103967.03
2023-02-07T07:36:01.147Z,103969.09
2023-02-07T07:38:29.400Z,103968.97
2023-02-07T07:40:57.341Z,103975.16
2023-02-07T07:43:25.372Z,103975.28
2023-02-07T07:45:54.587Z,103978.06
2023-02-07T07:48:23.263Z,103979.97
2023-02-07T07:50:51.463Z,103988.94
2023-02-07T07:53:21.384Z,103990.88
2023-02-07T07:55:53.616Z,103995.34
2023-02-07T07:58:22.818Z,103991.00
2023-02-07T08:00:51.351Z,103992.81
2023-02-07T08:03:20.421Z,103987.56
2023-02-07T08:05:48.808Z,103982.47
2023-02-07T08:08:17.301Z,103993.75
2023-02-07T08:10:46.660Z,103987.16
2023-02-07T08:13:14.559Z,103995.81
2023-02-07T08:15:42.283Z,103992.28
2023-02-07T08:18:10.333Z,103998.47
2023-02-07T08:20:38.359Z,104003.91
2023-02-07T08:23:06.270Z,104003.91
2023-02-07T08:25:34.009Z,104002.94
2023-02-07T08:28:04.609Z,103999.44
2023-02-07T08:30:32.971Z,103997.84
2023-02-07T08:33:00.813Z,103992.50
2023-02-07T08:35:28.761Z,103999.56
2023-02-07T08:37:58.287Z,104003.09
2023-02-07T08:40:26.726Z,103998.63
2023-02-07T08:42:54.577Z,103997.53
2023-02-07T08:45:23.779Z,103995.84
2023-02-07T08:47:51.632Z,104000.09
2023-02-07T08:50:20.040Z,103995.72
2023-02-07T08:52:47.820Z,103991.25
2023-02-07T08:55:15.719Z,103996.59
2023-02-07T08:57:43.430Z,103995.72
2023-02-07T09:00:12.578Z,103992.09
2023-02-07T09:02:43.413Z,103995.50
2023-02-07T09:05:11.707Z,103993.88
2023-02-07T09:07:39.700Z,103986.06
2023-02-07T09:10:09.392Z,103986.63
2023-02-07T09:12:38.242Z,103980.19
2023-02-07T09:15:07.062Z,103983.41
2023-02-07T09:17:34.824Z,103978.84
2023-02-07T09:20:04.541Z,103976.72
2023-02-07T09:22:33.094Z,103976.28
2023-02-07T09:25:00.857Z,103969.97
2023-02-07T09:27:28.596Z,103972.66
2023-02-07T09:29:56.324Z,103964.53
2023-02-07T09:32:24.057Z,103957.94
2023-02-07T09:34:52.387Z,103960.72
2023-02-07T09:37:21.509Z,103966.44
2023-02-07T09:39:49.253Z,103966.56
2023-02-07T09:42:28.998Z,103963.03
2023-02-07T09:45:02.408Z,103963.56
2023-02-07T09:47:33.576Z,103966.69
2023-02-07T09:50:07.093Z,103964.38
2023-02-07T09:52:41.982Z,103952.81
2023-02-07T09:55:19.127Z,103957.16
2023-02-07T09:57:49.860Z,103955.09
2023-02-07T10:00:22.828Z,103957.25
2023-02-07T10:02:57.572Z,103957.59
2023-02-07T10:05:30.893Z,103950.28
2023-02-07T10:08:00.012Z,103959.38
2023-02-07T10:10:36.833Z,103955.38
2023-02-07T10:13:18.993Z,103945.75
2023-02-07T10:15:57.717Z,103953.03
2023-02-07T10:18:37.089Z,103954.00
2023-02-07T10:21:09.693Z,103955.31
2023-02-07T10:23:49.829Z,103956.06
2023-02-07T10:26:28.134Z,103948.03
2023-02-07T10:29:09.157Z,103947.19
2023-02-07T10:31:39.706Z,103952.53
2023-02-07T10:34:14.655Z,103943.78
2023-02-07T10:36:46.497Z,103944.63
2023-02-07T10:39:22.865Z,103939.53
2023-02-07T10:41:52.152Z,103938.44
2023-02-07T10:44:21.381Z,103942.09
2023-02-07T10:46:56.862Z,103942.09
2023-02-07T10:49:27.205Z,103951.91
2023-02-07T10:51:58.102Z,103941.97
2023-02-07T10:54:27.295Z,103935.78
2023-02-07T10:57:01.756Z,103929.47
2023-02-07T10:59:38.639Z,103933.84
2023-02-07T11:02:41.845Z,103932.75
2023-02-07T11:05:30.022Z,103926.47
2023-02-07T11:07:59.326Z,103929.00
2023-02-07T11:10:32.244Z,103924.53
2023-02-07T11:13:01.473Z,103917.25
2023-02-07T11:15:37.788Z,103923.44
2023-02-07T11:18:06.813Z,103914.34
2023-02-07T11:20:37.836Z,103913.50
2023-02-07T11:23:12.242Z,103913.25
2023-02-07T11:25:44.041Z,103919.34
2023-02-07T11:28:20.730Z,103913.88
2023-02-07T11:30:53.297Z,103907.34
2023-02-07T11:33:23.961Z,103910.84
2023-02-07T11:36:12.634Z,103915.97
2023-02-07T11:38:42.990Z,103913.19
2023-02-07T11:41:21.211Z,103908.56
2023-02-07T11:43:58.301Z,103915.38
2023-02-07T11:46:34.553Z,103907.25
2023-02-07T11:49:03.363Z,103910.53
2023-02-07T11:51:33.581Z,103914.78
2023-02-07T11:54:04.148Z,103911.03
2023-02-07T11:56:38.025Z,103904.59
2023-02-07T11:59:08.884Z,103910.66
2023-02-07T12:01:37.823Z,103904.59
2023-02-07T12:04:11.291Z,103905.56
2023-02-07T12:06:42.987Z,103905.56
2023-02-07T12:09:23.122Z,103906.19
2023-02-07T12:11:56.806Z,103901.31
2023-02-07T12:14:29.357Z,103895.13
2023-02-07T12:17:00.621Z,103897.44
2023-02-07T12:19:33.691Z,103898.31
2023-02-07T12:22:07.807Z,103890.41
2023-02-07T12:24:40.661Z,103896.06
2023-02-07T12:27:15.633Z,103890.69
2023-02-07T12:29:53.523Z,103887.47
2023-02-07T12:32:28.585Z,103883.19
2023-02-07T12:35:02.582Z,103890.63
2023-02-07T12:37:38.663Z,103891.25
2023-02-07T12:40:15.497Z,103887.63
2023-02-07T12:42:48.378Z,103893.47
2023-02-07T12:45:18.796Z,103887.06
2023-02-07T12:47:56.851Z,103894.34
2023-02-07T12:50:50.389Z,103885.84
2023-02-07T12:53:34.460Z,103891.44
2023-02-07T12:56:13.955Z,103903.13
2023-02-07T12:58:53.605Z,103894.25
2023-02-07T13:01:30.149Z,103898.75
2023-02-07T13:04:33.535Z,103886.22
2023-02-07T13:07:17.039Z,103890.59
2023-02-07T13:09:53.223Z,103886.22
2023-02-07T13:12:27.574Z,103884.53
2023-02-07T13:15:09.660Z,103877.47
2023-02-07T13:17:51.265Z,103869.25
2023-02-07T13:20:45.424Z,103881.97
2023-02-07T13:23:19.021Z,103874.91
2023-02-07T13:25:50.448Z,103881.97
2023-02-07T13:28:26.479Z,103878.44
2023-02-07T13:30:57.459Z,103871.28
2023-02-07T13:33:30.887Z,103871.03
2023-02-07T13:36:04.412Z,103869.06
2023-02-07T13:38:44.742Z,103872.72
2023-02-07T13:41:20.451Z,103870.78
2023-02-07T13:44:09.059Z,103848.91
2023-02-07T13:46:58.785Z,103858.00
2023-02-07T13:49:38.312Z,103858.72
2023-02-07T13:52:12.001Z,103856.78
2023-02-07T13:54:48.440Z,103853.81
2023-02-07T13:57:58.354Z,103843.56
2023-02-07T14:00:27.954Z,103841.25
2023-02-07T14:03:00.395Z,103836.88
2023-02-07T14:05:31.610Z,103837.00
2023-02-07T14:08:02.548Z,103832.72
2023-02-07T14:10:48.936Z,103833.97
2023-02-07T14:13:28.564Z,103831.56
2023-02-07T14:16:06.149Z,103834.06
2023-02-07T14:18:42.758Z,103828.88
2023-02-07T14:21:31.740Z,103828.25
2023-02-07T14:24:05.799Z,103827.47
2023-02-07T14:26:59.703Z,103826.44
2023-02-07T14:29:57.113Z,103825.13
2023-02-07T14:32:31.658Z,103821.13
2023-02-07T14:35:04.637Z,103821.41
2023-02-07T14:37:40.859Z,103818.00
2023-02-07T14:40:19.313Z,103819.38
2023-02-07T14:42:56.504Z,103820.81
2023-02-07T14:45:25.372Z,103824.72
2023-02-07T14:47:53.416Z,103826.69
2023-02-07T14:50:31.749Z,103827.91
2023-02-07T14:53:01.630Z,103831.28
2023-02-07T14:55:35.412Z,103833.53
2023-02-07T14:58:08.585Z,103841.25
2023-02-07T15:00:41.213Z,103837.78
2023-02-07T15:03:13.847Z,103833.81
2023-02-07T15:05:51.261Z,103827.66
2023-02-07T15:08:20.820Z,103833.03
2023-02-07T15:10:56.022Z,103836.22
2023-02-07T15:13:27.871Z,103840.13
2023-02-07T15:15:58.132Z,103833.28
2023-02-07T15:18:29.791Z,103834.38
2023-02-07T15:21:00.046Z,103831.06
2023-02-07T15:23:29.812Z,103831.16
2023-02-07T15:25:59.456Z,103842.44
2023-02-07T15:28:29.266Z,103831.78
2023-02-07T15:31:03.241Z,103832.81
2023-02-07T15:33:36.842Z,103835.22
2023-02-07T15:36:08.329Z,103826.44
2023-02-07T15:38:36.082Z,103830.25
2023-02-07T15:41:04.821Z,103832.59
2023-02-07T15:43:34.603Z,103839.16
2023-02-07T15:46:08.828Z,103835.53
2023-02-07T15:48:48.865Z,103846.19
2023-02-07T15:51:20.255Z,103841.38
2023-02-07T15:53:51.833Z,103842.03
2023-02-07T15:56:20.205Z,103845.38
2023-02-07T15:58:49.859Z,103843.94
2023-02-07T16:01:25.644Z,103841.66
2023-02-07T16:03:56.569Z,103837.66
2023-02-07T16:06:27.490Z,103843.28
2023-02-07T16:08:56.997Z,103849.72
2023-02-07T16:11:44.369Z,103854.50
2023-02-07T16:14:19.400Z,103849.41
2023-02-07T16:16:52.614Z,103845.28
2023-02-07T16:19:25.069Z,103843.84
2023-02-07T16:22:03.868Z,103844.81
2023-02-07T16:24:35.288Z,103849.72
2023-02-07T16:27:04.576Z,103849.84
2023-02-07T16:29:32.392Z,103841.22
2023-02-07T16:32:00.301Z,103844.03
2023-02-07T16:34:28.144Z,103839.91
2023-02-07T16:36:57.554Z,103850.59
2023-02-07T16:39:25.313Z,103853.41
2023-02-07T16:41:56.809Z,103855.22
2023-02-07T16:44:26.420Z,103852.44
2023-02-07T16:46:54.196Z,103857.91
2023-02-07T16:49:24.024Z,103863.38
2023-02-07T16:51:52.355Z,103864.38
2023-02-07T16:54:21.646Z,103865.22
2023-02-07T16:56:53.745Z,103876.03
2023-02-07T16:59:23.351Z,103876.53
2023-02-07T17:01:54.103Z,103884.31
2023-02-07T17:04:22.672Z,103883.19
2023-02-07T17:06:50.898Z,103883.75
2023-02-07T17:09:23.073Z,103875.88
2023-02-07T17:11:51.643Z,103880.50
2023-02-07T17:14:19.503Z,103886.00
2023-02-07T17:16:47.464Z,103883.72
2023-02-07T17:19:18.286Z,103884.94
2023-02-07T17:21:46.339Z,103882.72
2023-02-07T17:24:14.833Z,103885.03
2023-02-07T17:26:46.277Z,103883.09
2023-02-07T17:29:16.175Z,103885.91
2023-02-07T17:31:44.763Z,103890.25
2023-02-07T17:34:12.677Z,103888.06
2023-02-07T17:36:44.224Z,103884.75
2023-02-07T17:39:13.497Z,103890.44
2023-02-07T17:41:41.225Z,103888.81
2023-02-07T17:44:10.342Z,103889.84
2023-02-07T17:46:38.421Z,103888.09
2023-02-07T17:49:13.709Z,103889.44
2023-02-07T17:51:41.440Z,103890.81
2023-02-07T17:54:09.128Z,103885.84
2023-02-07T17:56:39.315Z,103887.94
2023-02-07T17:59:10.065Z,103887.47
2023-02-07T18:01:39.260Z,103877.16
2023-02-07T18:04:07.089Z,103872.31
2023-02-07T18:06:34.886Z,103874.38
2023-02-07T18:09:02.647Z,103874.91
2023-02-07T18:11:30.448Z,103876.97
2023-02-07T18:13:58.261Z,103877.25
2023-02-07T18:16:27.639Z,103873.13
2023-02-07T18:18:58.111Z,103873.38
2023-02-07T18:21:26.424Z,103868.41
2023-02-07T18:23:56.291Z,103865.00
2023-02-07T18:26:24.110Z,103872.72
2023-02-07T18:28:51.885Z,103872.19
2023-02-07T18:31:23.144Z,103873.06
2023-02-07T18:33:52.785Z,103872.09
2023-02-07T18:36:23.426Z,103875.28
2023-02-07T18:38:51.710Z,103876.13
2023-02-07T18:41:23.358Z,103878.59
2023-02-07T18:43:51.634Z,103880.75
2023-02-07T18:46:21.693Z,103882.88
2023-02-07T18:48:54.419Z,103874.81
2023-02-07T18:51:24.715Z,103888.59
2023-02-07T18:53:54.837Z,103880.47
2023-02-07T18:56:26.584Z,103882.59
2023-02-07T18:58:56.672Z,103878.03
2023-02-07T19:01:26.403Z,103876.53
2023-02-07T19:03:56.258Z,103883.13
2023-02-07T19:06:27.501Z,103879.25
2023-02-07T19:08:56.566Z,103876.97
2023-02-07T19:11:24.441Z,103882.97
2023-02-07T19:13:52.159Z,103877.16
2023-02-07T19:16:22.215Z,103871.47
2023-02-07T19:18:50.649Z,103877.19
2023-02-07T19:21:21.690Z,103876.72
2023-02-07T19:23:51.179Z,103879.66
2023-02-07T19:26:18.946Z,103873.00
2023-02-07T19:28:46.669Z,103873.38
2023-02-07T19:31:18.169Z,103871.91
2023-02-07T19:33:46.616Z,103864.28
2023-02-07T19:36:14.562Z,103869.75
2023-02-07T19:38:42.537Z,103876.31
2023-02-07T19:41:11.640Z,103869.53
2023-02-07T19:43:39.444Z,103875.13
2023-02-07T19:46:07.194Z,103870.75
2023-02-07T19:48:34.979Z,103872.94
2023-02-07T19:51:04.218Z,103866.03
2023-02-07T19:53:33.113Z,103866.28
2023-02-07T19:56:03.141Z,103868.22
2023-02-07T19:58:33.665Z,103870.06
2023-02-07T20:01:02.087Z,103864.81
2023-02-07T20:03:30.170Z,103862.41
2023-02-07T20:06:00.573Z,103860.69
2023-02-07T20:08:28.704Z,103868.84
2023-02-07T20:10:56.395Z,103858.28
2023-02-07T20:13:24.140Z,103862.06
2023-02-07T20:15:53.234Z,103855.16
2023-02-07T20:18:20.978Z,103860.50
2023-02-07T20:20:48.741Z,103855.28
2023-02-07T20:23:16.479Z,103851.16
2023-02-07T20:25:44.256Z,103848.47
2023-02-07T20:28:12.099Z,103851.16
2023-02-07T20:30:45.885Z,103844.22
2023-02-07T20:33:15.015Z,103853.22
2023-02-07T20:35:42.689Z,103851.53
2023-02-07T20:38:10.411Z,103850.78
2023-02-07T20:40:38.506Z,103845.44
2023-02-07T20:43:06.376Z,103842.91
2023-02-07T20:45:34.143Z,103840.34
2023-02-07T20:48:01.992Z,103833.31
2023-02-07T20:50:31.108Z,103836.09
2023-02-07T20:52:58.984Z,103830.16
2023-02-07T20:55:26.963Z,103826.63
2023-02-07T20:57:54.629Z,103825.91
2023-02-07T21:00:22.333Z,103835.63
2023-02-07T21:02:50.090Z,103826.03
2023-02-07T21:05:18.036Z,103822.25
2023-02-07T21:07:47.185Z,103826.28
2023-02-07T21:10:15.067Z,103824.31
2023-02-07T21:12:42.782Z,103823.59
2023-02-07T21:15:11.172Z,103822.88
2023-02-07T21:17:39.091Z,103824.56
2023-02-07T21:20:07.616Z,103818.50
2023-02-07T21:22:35.705Z,103821.16
2023-02-07T21:25:04.973Z,103827.59
2023-02-07T21:27:32.624Z,103828.59
2023-02-07T21:30:00.367Z,103829.69
2023-02-07T21:32:28.078Z,103835.88
2023-02-07T21:34:55.800Z,103829.69
2023-02-07T21:37:24.929Z,103834.16
2023-02-07T21:39:52.690Z,103836.13
2023-02-07T21:42:21.793Z,103828.22
2023-02-07T21:44:49.515Z,103824.94
2023-02-07T21:47:17.204Z,103824.22
2023-02-07T21:49:44.916Z,103821.53
2023-02-07T21:52:12.600Z,103820.69
2023-02-07T21:54:40.328Z,103818.13
2023-02-07T21:57:07.984Z,103819.13
2023-02-07T21:59:37.212Z,103821.06
2023-02-07T22:02:04.949Z,103814.13
2023-02-07T22:04:32.657Z,103812.44
2023-02-07T22:07:00.399Z,103823.13
2023-02-07T22:09:28.072Z,103817.03
2023-02-07T22:11:55.850Z,103816.19
2023-02-07T22:14:24.835Z,103810.13
2023-02-07T22:16:54.393Z,103812.91
2023-02-07T22:19:22.901Z,103816.44
2023-02-07T22:21:51.526Z,103811.22
2023-02-07T22:24:21.147Z,103805.16
2023-02-07T22:26:48.842Z,103805.03
2023-02-07T22:29:16.677Z,103808.78
2023-02-07T22:31:44.585Z,103804.53
2023-02-07T22:34:14.756Z,103802.00
2023-02-07T22:36:44.109Z,103801.13
2023-02-07T22:39:13.639Z,103808.31
2023-02-07T22:41:41.366Z,103811.94
2023-02-07T22:44:09.291Z,103816.31
2023-02-07T22:46:37.156Z,103811.31
2023-02-07T22:49:04.929Z,103814.00
2023-02-07T22:51:36.481Z,103808.66
2023-02-07T22:54:06.536Z,103809.50
2023-02-07T22:56:35.248Z,103805.13
2023-02-07T22:59:03.022Z,103814.97
2023-02-07T23:01:36.633Z,103810.84
2023-02-07T23:04:05.817Z,103798.94
2023-02-07T23:06:35.158Z,103814.34
2023-02-07T23:09:05.177Z,103824.19
2023-02-07T23:11:33.294Z,103818.00
2023-02-07T23:14:01.120Z,103813.75
2023-02-07T23:16:30.644Z,103812.03
2023-02-07T23:19:02.871Z,103812.91
2023-02-07T23:21:30.736Z,103815.56
2023-02-07T23:23:59.802Z,103804.03
2023-02-07T23:26:28.656Z,103807.56
2023-02-07T23:28:56.350Z,103814.84
2023-02-07T23:31:25.817Z,103803.53
2023-02-07T23:33:54.181Z,103814.84
2023-02-07T23:36:22.589Z,103813.25
2023-02-07T23:38:50.987Z,103819.44
2023-02-07T23:41:20.543Z,103815.06
2023-02-07T23:43:48.368Z,103808.88
2023-02-07T23:46:17.376Z,103801.13
2023-02-07T23:48:45.512Z,103814.47
2023-02-07T23:51:14.066Z,103811.91
2023-02-07T23:53:42.651Z,103815.53
2023-02-07T23:56:12.202Z,103811.28
2023-02-07T23:58:41.337Z,103809.47
